sensor_id;sensor_type;location;lat;lon;timestamp;P1;durP1;ratioP1;P2;durP2;ratioP2
8476;SDS011;4275;42.854;23.222;2023-08-06T00:08:16;110.05;;;105.35;;
8476;SDS011;4275;42.854;23.222;2023-08-06T00:10:47;108.95;;;104.30;;
8476;SDS011;4275;42.854;23.222;2023-08-06T00:19:16;116.35;;;111.40;;
8476;SDS011;4275;42.854;23.222;2023-08-06T00:21:43;109.63;;;104.93;;
8476;SDS011;4275;42.854;23.222;2023-08-06T00:34:26;93.13;;;89.13;;
8476;SDS011;4275;42.854;23.222;2023-08-06T00:36:53;85.10;;;81.40;;
8476;SDS011;4275;42.854;23.222;2023-08-06T00:39:30;89.07;;;85.18;;
8476;SDS011;4275;42.854;23.222;2023-08-06T00:41:57;96.60;;;92.43;;
8476;SDS011;4275;42.854;23.222;2023-08-06T00:44:24;119.18;;;114.07;;
8476;SDS011;4275;42.854;23.222;2023-08-06T00:46:51;124.97;;;119.65;;
8476;SDS011;4275;42.854;23.222;2023-08-06T00:49:18;142.15;;;136.05;;
8476;SDS011;4275;42.854;23.222;2023-08-06T00:51:47;145.50;;;139.27;;
8476;SDS011;4275;42.854;23.222;2023-08-06T00:57:25;137.63;;;131.75;;
8476;SDS011;4275;42.854;23.222;2023-08-06T00:59:52;133.20;;;127.50;;
8476;SDS011;4275;42.854;23.222;2023-08-06T01:02:22;127.85;;;122.45;;
8476;SDS011;4275;42.854;23.222;2023-08-06T01:04:50;124.07;;;118.82;;
8476;SDS011;4275;42.854;23.222;2023-08-06T01:10:33;85.00;;;81.30;;
8476;SDS011;4275;42.854;23.222;2023-08-06T01:16:33;73.07;;;69.88;;
8476;SDS011;4275;42.854;23.222;2023-08-06T01:19:02;77.45;;;74.07;;
8476;SDS011;4275;42.854;23.222;2023-08-06T01:21:30;87.60;;;83.80;;
8476;SDS011;4275;42.854;23.222;2023-08-06T01:23:57;90.03;;;86.13;;
8476;SDS011;4275;42.854;23.222;2023-08-06T01:26:26;84.03;;;80.38;;
8476;SDS011;4275;42.854;23.222;2023-08-06T01:29:02;84.97;;;81.28;;
8476;SDS011;4275;42.854;23.222;2023-08-06T01:31:35;100.55;;;96.25;;
8476;SDS011;4275;42.854;23.222;2023-08-06T01:34:07;107.75;;;103.15;;
8476;SDS011;4275;42.854;23.222;2023-08-06T01:37:00;115.10;;;110.20;;
8476;SDS011;4275;42.854;23.222;2023-08-06T01:39:31;107.10;;;102.50;;
8476;SDS011;4275;42.854;23.222;2023-08-06T01:41:59;110.93;;;106.15;;
8476;SDS011;4275;42.854;23.222;2023-08-06T01:44:27;99.28;;;94.97;;
8476;SDS011;4275;42.854;23.222;2023-08-06T01:46:54;93.38;;;89.35;;
8476;SDS011;4275;42.854;23.222;2023-08-06T01:49:21;108.20;;;103.53;;
8476;SDS011;4275;42.854;23.222;2023-08-06T01:55:11;113.70;;;108.80;;
8476;SDS011;4275;42.854;23.222;2023-08-06T02:01:00;110.72;;;106.03;;
8476;SDS011;4275;42.854;23.222;2023-08-06T02:06:38;99.65;;;95.35;;
8476;SDS011;4275;42.854;23.222;2023-08-06T02:09:06;108.93;;;104.25;;
8476;SDS011;4275;42.854;23.222;2023-08-06T02:14:33;103.35;;;98.85;;
8476;SDS011;4275;42.854;23.222;2023-08-06T02:17:00;111.03;;;106.25;;
8476;SDS011;4275;42.854;23.222;2023-08-06T02:19:28;132.63;;;126.90;;
8476;SDS011;4275;42.854;23.222;2023-08-06T02:21:54;154.27;;;147.63;;
8476;SDS011;4275;42.854;23.222;2023-08-06T02:24:36;177.05;;;169.35;;
8476;SDS011;4275;42.854;23.222;2023-08-06T02:27:06;211.77;;;202.43;;
8476;SDS011;4275;42.854;23.222;2023-08-06T02:29:50;209.25;;;200.02;;
8476;SDS011;4275;42.854;23.222;2023-08-06T02:32:17;207.75;;;198.65;;
8476;SDS011;4275;42.854;23.222;2023-08-06T02:34:50;195.02;;;186.52;;
8476;SDS011;4275;42.854;23.222;2023-08-06T02:37:17;189.80;;;181.50;;
8476;SDS011;4275;42.854;23.222;2023-08-06T02:39:44;200.98;;;192.15;;
8476;SDS011;4275;42.854;23.222;2023-08-06T02:45:08;173.70;;;166.15;;
8476;SDS011;4275;42.854;23.222;2023-08-06T02:47:40;166.30;;;159.13;;
8476;SDS011;4275;42.854;23.222;2023-08-06T02:50:08;148.60;;;142.23;;
8476;SDS011;4275;42.854;23.222;2023-08-06T02:52:35;153.23;;;146.68;;
8476;SDS011;4275;42.854;23.222;2023-08-06T02:55:04;149.73;;;143.32;;
8476;SDS011;4275;42.854;23.222;2023-08-06T02:57:31;142.18;;;136.07;;
8476;SDS011;4275;42.854;23.222;2023-08-06T03:00:00;109.28;;;104.57;;
8476;SDS011;4275;42.854;23.222;2023-08-06T03:06:04;52.88;;;50.47;;
8476;SDS011;4275;42.854;23.222;2023-08-06T03:08:31;54.40;;;52.00;;
8476;SDS011;4275;42.854;23.222;2023-08-06T03:10:58;59.97;;;57.28;;
8476;SDS011;4275;42.854;23.222;2023-08-06T03:13:30;64.93;;;62.03;;
8476;SDS011;4275;42.854;23.222;2023-08-06T03:15:58;77.82;;;74.35;;
8476;SDS011;4275;42.854;23.222;2023-08-06T03:18:26;71.47;;;68.25;;
8476;SDS011;4275;42.854;23.222;2023-08-06T03:20:53;72.35;;;69.07;;
8476;SDS011;4275;42.854;23.222;2023-08-06T03:23:20;81.68;;;78.07;;
8476;SDS011;4275;42.854;23.222;2023-08-06T03:25:47;111.10;;;106.35;;
8476;SDS011;4275;42.854;23.222;2023-08-06T03:28:14;126.70;;;121.28;;
8476;SDS011;4275;42.854;23.222;2023-08-06T03:56:26;121.90;;;116.68;;
8476;SDS011;4275;42.854;23.222;2023-08-06T03:58:53;110.35;;;105.57;;
8476;SDS011;4275;42.854;23.222;2023-08-06T04:01:20;107.05;;;102.45;;
8476;SDS011;4275;42.854;23.222;2023-08-06T04:10:29;92.30;;;88.30;;
8476;SDS011;4275;42.854;23.222;2023-08-06T04:16:18;80.47;;;76.97;;
8476;SDS011;4275;42.854;23.222;2023-08-06T04:24:56;56.20;;;53.70;;
8476;SDS011;4275;42.854;23.222;2023-08-06T04:27:24;51.85;;;49.55;;
8476;SDS011;4275;42.854;23.222;2023-08-06T04:29:51;47.92;;;45.83;;
8476;SDS011;4275;42.854;23.222;2023-08-06T04:32:18;42.22;;;40.42;;
8476;SDS011;4275;42.854;23.222;2023-08-06T04:34:45;46.45;;;44.45;;
8476;SDS011;4275;42.854;23.222;2023-08-06T04:37:13;47.83;;;45.83;;
8476;SDS011;4275;42.854;23.222;2023-08-06T04:39:40;45.20;;;43.30;;
8476;SDS011;4275;42.854;23.222;2023-08-06T04:42:26;38.60;;;37.00;;
8476;SDS011;4275;42.854;23.222;2023-08-06T04:45:00;31.77;;;30.50;;
8476;SDS011;4275;42.854;23.222;2023-08-06T04:47:28;28.65;;;27.55;;
8476;SDS011;4275;42.854;23.222;2023-08-06T04:56:25;31.65;;;30.40;;
8476;SDS011;4275;42.854;23.222;2023-08-06T04:59:01;31.17;;;29.98;;
8476;SDS011;4275;42.854;23.222;2023-08-06T05:01:28;32.85;;;31.55;;
8476;SDS011;4275;42.854;23.222;2023-08-06T05:03:55;30.05;;;28.85;;
8476;SDS011;4275;42.854;23.222;2023-08-06T05:06:22;29.90;;;28.70;;
8476;SDS011;4275;42.854;23.222;2023-08-06T05:08:49;20.77;;;20.08;;
8476;SDS011;4275;42.854;23.222;2023-08-06T05:11:16;19.60;;;18.90;;
8476;SDS011;4275;42.854;23.222;2023-08-06T05:13:43;17.38;;;16.85;;
8476;SDS011;4275;42.854;23.222;2023-08-06T05:16:11;17.92;;;17.33;;
8476;SDS011;4275;42.854;23.222;2023-08-06T05:18:38;19.10;;;18.50;;
8476;SDS011;4275;42.854;23.222;2023-08-06T05:21:06;18.50;;;17.90;;
8476;SDS011;4275;42.854;23.222;2023-08-06T05:23:34;16.70;;;16.20;;
8476;SDS011;4275;42.854;23.222;2023-08-06T05:26:01;14.25;;;13.85;;
8476;SDS011;4275;42.854;23.222;2023-08-06T05:28:27;11.70;;;11.40;;
8476;SDS011;4275;42.854;23.222;2023-08-06T05:30:55;13.60;;;13.20;;
8476;SDS011;4275;42.854;23.222;2023-08-06T05:33:23;11.18;;;10.88;;
8476;SDS011;4275;42.854;23.222;2023-08-06T05:35:50;9.05;;;8.85;;
8476;SDS011;4275;42.854;23.222;2023-08-06T05:38:17;8.10;;;7.90;;
8476;SDS011;4275;42.854;23.222;2023-08-06T05:40:44;6.78;;;6.57;;
8476;SDS011;4275;42.854;23.222;2023-08-06T05:43:11;8.60;;;8.40;;
8476;SDS011;4275;42.854;23.222;2023-08-06T05:45:38;8.65;;;8.45;;
8476;SDS011;4275;42.854;23.222;2023-08-06T05:48:05;7.80;;;7.60;;
8476;SDS011;4275;42.854;23.222;2023-08-06T05:50:33;9.10;;;8.90;;
8476;SDS011;4275;42.854;23.222;2023-08-06T05:53:00;9.25;;;9.05;;
8476;SDS011;4275;42.854;23.222;2023-08-06T05:55:27;10.05;;;9.75;;
8476;SDS011;4275;42.854;23.222;2023-08-06T05:57:54;12.65;;;12.25;;
8476;SDS011;4275;42.854;23.222;2023-08-06T06:00:22;14.60;;;14.10;;
8476;SDS011;4275;42.854;23.222;2023-08-06T06:02:49;14.25;;;13.75;;
8476;SDS011;4275;42.854;23.222;2023-08-06T06:05:16;14.48;;;13.98;;
8476;SDS011;4275;42.854;23.222;2023-08-06T06:07:44;15.70;;;15.10;;
8476;SDS011;4275;42.854;23.222;2023-08-06T06:10:11;17.10;;;16.40;;
8476;SDS011;4275;42.854;23.222;2023-08-06T06:12:38;18.42;;;17.58;;
8476;SDS011;4275;42.854;23.222;2023-08-06T06:15:05;17.95;;;17.25;;
8476;SDS011;4275;42.854;23.222;2023-08-06T06:17:33;18.05;;;17.25;;
8476;SDS011;4275;42.854;23.222;2023-08-06T06:19:59;16.15;;;15.55;;
8476;SDS011;4275;42.854;23.222;2023-08-06T06:22:29;16.00;;;15.40;;
8476;SDS011;4275;42.854;23.222;2023-08-06T06:24:57;14.50;;;14.00;;
8476;SDS011;4275;42.854;23.222;2023-08-06T06:27:24;15.27;;;14.77;;
8476;SDS011;4275;42.854;23.222;2023-08-06T06:29:51;15.80;;;15.20;;
8476;SDS011;4275;42.854;23.222;2023-08-06T06:32:20;16.75;;;16.15;;
8476;SDS011;4275;42.854;23.222;2023-08-06T06:34:47;15.93;;;15.32;;
8476;SDS011;4275;42.854;23.222;2023-08-06T06:37:14;14.90;;;14.40;;
8476;SDS011;4275;42.854;23.222;2023-08-06T06:39:41;14.23;;;13.73;;
8476;SDS011;4275;42.854;23.222;2023-08-06T06:42:10;14.57;;;13.98;;
8476;SDS011;4275;42.854;23.222;2023-08-06T06:44:37;13.45;;;12.95;;
8476;SDS011;4275;42.854;23.222;2023-08-06T06:47:04;13.80;;;13.30;;
8476;SDS011;4275;42.854;23.222;2023-08-06T06:49:31;14.57;;;13.88;;
8476;SDS011;4275;42.854;23.222;2023-08-06T06:51:58;14.70;;;14.00;;
8476;SDS011;4275;42.854;23.222;2023-08-06T06:54:25;15.82;;;14.93;;
8476;SDS011;4275;42.854;23.222;2023-08-06T06:56:52;16.17;;;15.38;;
8476;SDS011;4275;42.854;23.222;2023-08-06T06:59:21;14.85;;;14.15;;
8476;SDS011;4275;42.854;23.222;2023-08-06T07:01:48;15.57;;;14.77;;
8476;SDS011;4275;42.854;23.222;2023-08-06T07:04:14;16.27;;;15.38;;
8476;SDS011;4275;42.854;23.222;2023-08-06T07:06:41;15.55;;;14.75;;
8476;SDS011;4275;42.854;23.222;2023-08-06T07:09:08;16.20;;;15.20;;
8476;SDS011;4275;42.854;23.222;2023-08-06T07:11:35;16.30;;;15.30;;
8476;SDS011;4275;42.854;23.222;2023-08-06T07:14:02;16.90;;;15.80;;
8476;SDS011;4275;42.854;23.222;2023-08-06T07:16:31;16.42;;;15.43;;
8476;SDS011;4275;42.854;23.222;2023-08-06T07:18:59;15.52;;;14.63;;
8476;SDS011;4275;42.854;23.222;2023-08-06T07:21:25;17.48;;;16.27;;
8476;SDS011;4275;42.854;23.222;2023-08-06T07:23:52;16.77;;;15.68;;
8476;SDS011;4275;42.854;23.222;2023-08-06T07:26:19;17.25;;;16.05;;
8476;SDS011;4275;42.854;23.222;2023-08-06T07:28:46;17.08;;;15.88;;
8476;SDS011;4275;42.854;23.222;2023-08-06T07:31:13;17.23;;;16.02;;
8476;SDS011;4275;42.854;23.222;2023-08-06T07:33:42;17.33;;;16.13;;
8476;SDS011;4275;42.854;23.222;2023-08-06T07:36:09;17.67;;;16.38;;
8476;SDS011;4275;42.854;23.222;2023-08-06T07:38:37;17.23;;;16.02;;
8476;SDS011;4275;42.854;23.222;2023-08-06T07:41:04;17.75;;;16.45;;
8476;SDS011;4275;42.854;23.222;2023-08-06T07:43:32;18.25;;;16.85;;
8476;SDS011;4275;42.854;23.222;2023-08-06T07:46:00;17.70;;;16.40;;
8476;SDS011;4275;42.854;23.222;2023-08-06T07:48:28;17.88;;;16.58;;
8476;SDS011;4275;42.854;23.222;2023-08-06T07:50:56;18.35;;;16.95;;
8476;SDS011;4275;42.854;23.222;2023-08-06T07:53:25;18.98;;;17.48;;
8476;SDS011;4275;42.854;23.222;2023-08-06T07:55:54;18.45;;;17.05;;
8476;SDS011;4275;42.854;23.222;2023-08-06T07:58:22;19.35;;;17.75;;
8476;SDS011;4275;42.854;23.222;2023-08-06T08:00:50;19.08;;;17.48;;
8476;SDS011;4275;42.854;23.222;2023-08-06T08:03:17;18.95;;;17.45;;
8476;SDS011;4275;42.854;23.222;2023-08-06T08:05:44;18.42;;;17.02;;
8476;SDS011;4275;42.854;23.222;2023-08-06T08:08:13;18.52;;;17.13;;
8476;SDS011;4275;42.854;23.222;2023-08-06T08:10:40;18.35;;;16.95;;
8476;SDS011;4275;42.854;23.222;2023-08-06T08:13:07;18.45;;;17.05;;
8476;SDS011;4275;42.854;23.222;2023-08-06T08:15:34;18.42;;;17.02;;
8476;SDS011;4275;42.854;23.222;2023-08-06T08:18:01;17.95;;;16.65;;
8476;SDS011;4275;42.854;23.222;2023-08-06T08:20:28;17.98;;;16.67;;
8476;SDS011;4275;42.854;23.222;2023-08-06T08:22:57;18.38;;;16.98;;
8476;SDS011;4275;42.854;23.222;2023-08-06T08:25:27;17.63;;;16.33;;
8476;SDS011;4275;42.854;23.222;2023-08-06T08:27:54;17.90;;;16.60;;
8476;SDS011;4275;42.854;23.222;2023-08-06T08:30:21;18.35;;;16.95;;
8476;SDS011;4275;42.854;23.222;2023-08-06T08:32:50;18.27;;;16.92;;
8476;SDS011;4275;42.854;23.222;2023-08-06T08:35:17;17.90;;;16.60;;
8476;SDS011;4275;42.854;23.222;2023-08-06T08:37:44;18.23;;;16.90;;
8476;SDS011;4275;42.854;23.222;2023-08-06T08:40:11;18.15;;;16.75;;
8476;SDS011;4275;42.854;23.222;2023-08-06T08:42:42;18.67;;;17.27;;
8476;SDS011;4275;42.854;23.222;2023-08-06T08:45:11;18.75;;;17.35;;
8476;SDS011;4275;42.854;23.222;2023-08-06T08:47:40;18.30;;;17.00;;
8476;SDS011;4275;42.854;23.222;2023-08-06T08:50:08;18.85;;;17.45;;
8476;SDS011;4275;42.854;23.222;2023-08-06T08:52:36;18.63;;;17.23;;
8476;SDS011;4275;42.854;23.222;2023-08-06T08:55:05;18.80;;;17.42;;
8476;SDS011;4275;42.854;23.222;2023-08-06T08:57:34;19.13;;;17.73;;
8476;SDS011;4275;42.854;23.222;2023-08-06T09:00:03;18.70;;;17.40;;
8476;SDS011;4275;42.854;23.222;2023-08-06T09:02:31;19.02;;;17.70;;
8476;SDS011;4275;42.854;23.222;2023-08-06T09:05:00;18.38;;;17.17;;
8476;SDS011;4275;42.854;23.222;2023-08-06T09:07:29;18.45;;;17.17;;
8476;SDS011;4275;42.854;23.222;2023-08-06T09:10:02;18.60;;;17.30;;
8476;SDS011;4275;42.854;23.222;2023-08-06T09:12:30;18.55;;;17.25;;
8476;SDS011;4275;42.854;23.222;2023-08-06T09:14:58;19.00;;;17.60;;
8476;SDS011;4275;42.854;23.222;2023-08-06T09:17:26;18.65;;;17.40;;
8476;SDS011;4275;42.854;23.222;2023-08-06T09:19:53;18.10;;;16.90;;
8476;SDS011;4275;42.854;23.222;2023-08-06T09:22:20;18.10;;;16.90;;
8476;SDS011;4275;42.854;23.222;2023-08-06T09:24:47;18.17;;;16.98;;
8476;SDS011;4275;42.854;23.222;2023-08-06T09:27:14;18.05;;;16.95;;
8476;SDS011;4275;42.854;23.222;2023-08-06T09:29:42;18.02;;;16.92;;
8476;SDS011;4275;42.854;23.222;2023-08-06T09:32:10;18.67;;;17.48;;
8476;SDS011;4275;42.854;23.222;2023-08-06T09:34:41;18.60;;;17.40;;
8476;SDS011;4275;42.854;23.222;2023-08-06T09:37:09;18.52;;;17.42;;
8476;SDS011;4275;42.854;23.222;2023-08-06T09:39:38;18.48;;;17.38;;
8476;SDS011;4275;42.854;23.222;2023-08-06T09:42:06;18.75;;;17.55;;
8476;SDS011;4275;42.854;23.222;2023-08-06T09:44:33;18.73;;;17.63;;
8476;SDS011;4275;42.854;23.222;2023-08-06T09:47:02;18.65;;;17.55;;
8476;SDS011;4275;42.854;23.222;2023-08-06T09:49:41;18.65;;;17.55;;
8476;SDS011;4275;42.854;23.222;2023-08-06T09:52:10;18.98;;;17.88;;
8476;SDS011;4275;42.854;23.222;2023-08-06T09:54:38;19.48;;;18.33;;
8476;SDS011;4275;42.854;23.222;2023-08-06T09:57:06;19.70;;;18.50;;
8476;SDS011;4275;42.854;23.222;2023-08-06T09:59:33;19.15;;;18.00;;
8476;SDS011;4275;42.854;23.222;2023-08-06T10:02:02;19.48;;;18.30;;
8476;SDS011;4275;42.854;23.222;2023-08-06T10:04:34;19.05;;;17.95;;
8476;SDS011;4275;42.854;23.222;2023-08-06T10:07:03;19.23;;;18.13;;
8476;SDS011;4275;42.854;23.222;2023-08-06T10:09:31;20.20;;;19.00;;
8476;SDS011;4275;42.854;23.222;2023-08-06T10:11:58;20.40;;;19.20;;
8476;SDS011;4275;42.854;23.222;2023-08-06T10:14:28;19.27;;;18.17;;
8476;SDS011;4275;42.854;23.222;2023-08-06T10:16:59;19.02;;;17.92;;
8476;SDS011;4275;42.854;23.222;2023-08-06T10:19:26;19.23;;;18.13;;
8476;SDS011;4275;42.854;23.222;2023-08-06T10:24:53;19.20;;;18.10;;
8476;SDS011;4275;42.854;23.222;2023-08-06T10:27:21;19.13;;;17.92;;
8476;SDS011;4275;42.854;23.222;2023-08-06T10:29:49;18.77;;;17.77;;
8476;SDS011;4275;42.854;23.222;2023-08-06T10:32:16;18.88;;;17.77;;
8476;SDS011;4275;42.854;23.222;2023-08-06T10:34:53;19.83;;;18.63;;
8476;SDS011;4275;42.854;23.222;2023-08-06T10:37:24;19.83;;;18.73;;
8476;SDS011;4275;42.854;23.222;2023-08-06T10:39:51;20.15;;;18.95;;
8476;SDS011;4275;42.854;23.222;2023-08-06T10:42:22;19.90;;;18.80;;
8476;SDS011;4275;42.854;23.222;2023-08-06T10:47:37;19.65;;;18.55;;
8476;SDS011;4275;42.854;23.222;2023-08-06T10:50:05;19.75;;;18.65;;
8476;SDS011;4275;42.854;23.222;2023-08-06T10:52:35;19.90;;;18.80;;
8476;SDS011;4275;42.854;23.222;2023-08-06T10:55:02;20.20;;;19.00;;
8476;SDS011;4275;42.854;23.222;2023-08-06T10:57:29;19.75;;;18.65;;
8476;SDS011;4275;42.854;23.222;2023-08-06T10:59:56;19.83;;;18.73;;
8476;SDS011;4275;42.854;23.222;2023-08-06T11:02:23;19.98;;;18.88;;
8476;SDS011;4275;42.854;23.222;2023-08-06T11:04:50;19.95;;;18.85;;
8476;SDS011;4275;42.854;23.222;2023-08-06T11:07:17;19.65;;;18.55;;
8476;SDS011;4275;42.854;23.222;2023-08-06T11:09:49;19.58;;;18.58;;
8476;SDS011;4275;42.854;23.222;2023-08-06T11:12:18;19.85;;;18.75;;
8476;SDS011;4275;42.854;23.222;2023-08-06T11:14:49;19.98;;;18.88;;
8476;SDS011;4275;42.854;23.222;2023-08-06T11:17:16;19.80;;;18.80;;
8476;SDS011;4275;42.854;23.222;2023-08-06T11:19:44;20.27;;;19.27;;
8476;SDS011;4275;42.854;23.222;2023-08-06T11:22:11;19.95;;;18.95;;
8476;SDS011;4275;42.854;23.222;2023-08-06T11:24:38;20.67;;;19.60;;
8476;SDS011;4275;42.854;23.222;2023-08-06T11:27:12;19.73;;;18.67;;
8476;SDS011;4275;42.854;23.222;2023-08-06T11:29:40;20.25;;;19.25;;
8476;SDS011;4275;42.854;23.222;2023-08-06T11:32:07;20.05;;;19.02;;
8476;SDS011;4275;42.854;23.222;2023-08-06T11:34:34;20.10;;;19.10;;
8476;SDS011;4275;42.854;23.222;2023-08-06T11:37:02;19.83;;;18.83;;
8476;SDS011;4275;42.854;23.222;2023-08-06T11:39:31;19.90;;;18.90;;
8476;SDS011;4275;42.854;23.222;2023-08-06T11:41:58;18.88;;;17.92;;
8476;SDS011;4275;42.854;23.222;2023-08-06T11:44:31;19.70;;;18.70;;
8476;SDS011;4275;42.854;23.222;2023-08-06T11:46:59;19.85;;;18.85;;
8476;SDS011;4275;42.854;23.222;2023-08-06T11:49:37;20.02;;;19.02;;
8476;SDS011;4275;42.854;23.222;2023-08-06T11:52:13;21.08;;;20.08;;
8476;SDS011;4275;42.854;23.222;2023-08-06T11:54:41;20.20;;;19.20;;
8476;SDS011;4275;42.854;23.222;2023-08-06T11:57:08;20.40;;;19.40;;
8476;SDS011;4275;42.854;23.222;2023-08-06T11:59:37;20.98;;;19.98;;
8476;SDS011;4275;42.854;23.222;2023-08-06T12:02:07;20.98;;;19.98;;
8476;SDS011;4275;42.854;23.222;2023-08-06T12:07:30;20.65;;;19.65;;
8476;SDS011;4275;42.854;23.222;2023-08-06T12:09:57;23.83;;;22.15;;
8476;SDS011;4275;42.854;23.222;2023-08-06T12:12:25;20.85;;;19.85;;
8476;SDS011;4275;42.854;23.222;2023-08-06T12:14:53;21.23;;;20.23;;
8476;SDS011;4275;42.854;23.222;2023-08-06T12:17:21;19.70;;;18.80;;
8476;SDS011;4275;42.854;23.222;2023-08-06T12:19:48;20.35;;;19.35;;
8476;SDS011;4275;42.854;23.222;2023-08-06T12:22:15;20.85;;;19.85;;
8476;SDS011;4275;42.854;23.222;2023-08-06T12:24:43;20.85;;;19.85;;
8476;SDS011;4275;42.854;23.222;2023-08-06T12:27:12;21.02;;;20.02;;
8476;SDS011;4275;42.854;23.222;2023-08-06T12:29:40;20.60;;;19.60;;
8476;SDS011;4275;42.854;23.222;2023-08-06T12:32:09;21.25;;;20.25;;
8476;SDS011;4275;42.854;23.222;2023-08-06T12:34:37;21.25;;;20.25;;
8476;SDS011;4275;42.854;23.222;2023-08-06T12:37:05;21.27;;;20.27;;
8476;SDS011;4275;42.854;23.222;2023-08-06T12:39:32;20.05;;;19.15;;
8476;SDS011;4275;42.854;23.222;2023-08-06T12:41:59;19.80;;;18.90;;
8476;SDS011;4275;42.854;23.222;2023-08-06T12:44:26;19.90;;;18.90;;
8476;SDS011;4275;42.854;23.222;2023-08-06T12:46:53;20.17;;;19.17;;
8476;SDS011;4275;42.854;23.222;2023-08-06T12:49:22;19.95;;;18.95;;
8476;SDS011;4275;42.854;23.222;2023-08-06T12:51:50;20.15;;;19.15;;
8476;SDS011;4275;42.854;23.222;2023-08-06T12:54:17;19.98;;;19.02;;
8476;SDS011;4275;42.854;23.222;2023-08-06T12:56:45;20.15;;;19.15;;
8476;SDS011;4275;42.854;23.222;2023-08-06T12:59:13;20.40;;;19.40;;
8476;SDS011;4275;42.854;23.222;2023-08-06T13:01:41;20.13;;;19.13;;
8476;SDS011;4275;42.854;23.222;2023-08-06T13:04:08;20.40;;;19.40;;
8476;SDS011;4275;42.854;23.222;2023-08-06T13:06:37;19.83;;;18.88;;
8476;SDS011;4275;42.854;23.222;2023-08-06T13:09:05;20.05;;;19.05;;
8476;SDS011;4275;42.854;23.222;2023-08-06T13:11:32;20.20;;;19.20;;
8476;SDS011;4275;42.854;23.222;2023-08-06T13:14:03;19.73;;;18.83;;
8476;SDS011;4275;42.854;23.222;2023-08-06T13:16:31;19.83;;;18.83;;
8476;SDS011;4275;42.854;23.222;2023-08-06T13:18:58;19.63;;;18.73;;
8476;SDS011;4275;42.854;23.222;2023-08-06T13:21:33;19.30;;;18.40;;
8476;SDS011;4275;42.854;23.222;2023-08-06T13:24:03;20.15;;;19.20;;
8476;SDS011;4275;42.854;23.222;2023-08-06T13:26:31;20.20;;;19.20;;
8476;SDS011;4275;42.854;23.222;2023-08-06T13:28:58;19.80;;;18.80;;
8476;SDS011;4275;42.854;23.222;2023-08-06T13:31:25;21.25;;;20.15;;
8476;SDS011;4275;42.854;23.222;2023-08-06T13:33:53;20.42;;;19.42;;
8476;SDS011;4275;42.854;23.222;2023-08-06T13:36:23;20.58;;;19.58;;
8476;SDS011;4275;42.854;23.222;2023-08-06T13:38:50;20.10;;;19.10;;
8476;SDS011;4275;42.854;23.222;2023-08-06T13:41:18;19.10;;;18.20;;
8476;SDS011;4275;42.854;23.222;2023-08-06T13:43:45;20.15;;;19.15;;
8476;SDS011;4275;42.854;23.222;2023-08-06T13:46:12;20.35;;;19.35;;
8476;SDS011;4275;42.854;23.222;2023-08-06T13:48:41;20.45;;;19.45;;
8476;SDS011;4275;42.854;23.222;2023-08-06T13:51:09;20.17;;;19.17;;
8476;SDS011;4275;42.854;23.222;2023-08-06T13:53:36;20.23;;;19.23;;
8476;SDS011;4275;42.854;23.222;2023-08-06T13:56:04;20.50;;;19.50;;
8476;SDS011;4275;42.854;23.222;2023-08-06T13:58:32;20.38;;;19.38;;
8476;SDS011;4275;42.854;23.222;2023-08-06T14:00:59;19.90;;;18.90;;
8476;SDS011;4275;42.854;23.222;2023-08-06T14:03:26;20.50;;;19.50;;
8476;SDS011;4275;42.854;23.222;2023-08-06T14:05:53;19.73;;;18.83;;
8476;SDS011;4275;42.854;23.222;2023-08-06T14:08:22;19.90;;;19.00;;
8476;SDS011;4275;42.854;23.222;2023-08-06T14:10:49;20.98;;;19.98;;
8476;SDS011;4275;42.854;23.222;2023-08-06T14:13:16;20.23;;;19.23;;
8476;SDS011;4275;42.854;23.222;2023-08-06T14:15:45;21.27;;;20.17;;
8476;SDS011;4275;42.854;23.222;2023-08-06T14:18:12;21.33;;;20.33;;
8476;SDS011;4275;42.854;23.222;2023-08-06T14:20:40;21.20;;;20.13;;
8476;SDS011;4275;42.854;23.222;2023-08-06T14:23:07;21.08;;;20.08;;
8476;SDS011;4275;42.854;23.222;2023-08-06T14:25:34;20.88;;;19.88;;
8476;SDS011;4275;42.854;23.222;2023-08-06T14:28:01;21.17;;;20.17;;
8476;SDS011;4275;42.854;23.222;2023-08-06T14:30:28;21.13;;;20.02;;
8476;SDS011;4275;42.854;23.222;2023-08-06T14:32:56;21.05;;;20.05;;
8476;SDS011;4275;42.854;23.222;2023-08-06T14:35:25;20.77;;;19.77;;
8476;SDS011;4275;42.854;23.222;2023-08-06T14:37:52;20.77;;;19.77;;
8476;SDS011;4275;42.854;23.222;2023-08-06T14:40:19;20.75;;;19.75;;
8476;SDS011;4275;42.854;23.222;2023-08-06T14:42:46;20.88;;;19.88;;
8476;SDS011;4275;42.854;23.222;2023-08-06T14:45:13;22.25;;;21.25;;
8476;SDS011;4275;42.854;23.222;2023-08-06T14:47:40;21.20;;;20.20;;
8476;SDS011;4275;42.854;23.222;2023-08-06T14:50:09;20.80;;;19.80;;
8476;SDS011;4275;42.854;23.222;2023-08-06T14:52:36;21.23;;;20.23;;
8476;SDS011;4275;42.854;23.222;2023-08-06T14:55:03;21.00;;;20.00;;
8476;SDS011;4275;42.854;23.222;2023-08-06T14:57:31;19.35;;;18.45;;
8476;SDS011;4275;42.854;23.222;2023-08-06T14:59:58;19.85;;;18.85;;
8476;SDS011;4275;42.854;23.222;2023-08-06T15:02:25;20.80;;;19.80;;
8476;SDS011;4275;42.854;23.222;2023-08-06T15:04:53;20.92;;;19.92;;
8476;SDS011;4275;42.854;23.222;2023-08-06T15:07:21;20.95;;;19.95;;
8476;SDS011;4275;42.854;23.222;2023-08-06T15:09:48;21.10;;;20.10;;
8476;SDS011;4275;42.854;23.222;2023-08-06T15:12:15;20.90;;;19.90;;
8476;SDS011;4275;42.854;23.222;2023-08-06T15:14:42;21.08;;;20.08;;
8476;SDS011;4275;42.854;23.222;2023-08-06T15:17:09;21.25;;;20.25;;
8476;SDS011;4275;42.854;23.222;2023-08-06T15:19:36;21.13;;;20.13;;
8476;SDS011;4275;42.854;23.222;2023-08-06T15:22:03;21.10;;;20.10;;
8476;SDS011;4275;42.854;23.222;2023-08-06T15:24:32;21.20;;;20.20;;
8476;SDS011;4275;42.854;23.222;2023-08-06T15:26:58;21.20;;;20.20;;
8476;SDS011;4275;42.854;23.222;2023-08-06T15:29:25;20.73;;;19.73;;
8476;SDS011;4275;42.854;23.222;2023-08-06T15:31:52;20.60;;;19.60;;
8476;SDS011;4275;42.854;23.222;2023-08-06T15:34:19;20.23;;;19.33;;
8476;SDS011;4275;42.854;23.222;2023-08-06T15:36:46;20.77;;;19.77;;
8476;SDS011;4275;42.854;23.222;2023-08-06T15:39:13;20.65;;;19.65;;
8476;SDS011;4275;42.854;23.222;2023-08-06T15:41:41;20.50;;;19.50;;
8476;SDS011;4275;42.854;23.222;2023-08-06T15:44:08;19.13;;;18.23;;
8476;SDS011;4275;42.854;23.222;2023-08-06T15:46:35;20.70;;;19.70;;
8476;SDS011;4275;42.854;23.222;2023-08-06T15:49:02;20.30;;;19.35;;
8476;SDS011;4275;42.854;23.222;2023-08-06T15:51:29;20.58;;;19.58;;
8476;SDS011;4275;42.854;23.222;2023-08-06T15:53:56;21.10;;;20.10;;
8476;SDS011;4275;42.854;23.222;2023-08-06T15:56:23;21.27;;;20.27;;
8476;SDS011;4275;42.854;23.222;2023-08-06T15:58:52;20.38;;;19.38;;
8476;SDS011;4275;42.854;23.222;2023-08-06T16:01:19;21.25;;;20.25;;
8476;SDS011;4275;42.854;23.222;2023-08-06T16:03:46;20.83;;;19.83;;
8476;SDS011;4275;42.854;23.222;2023-08-06T16:06:13;20.95;;;19.95;;
8476;SDS011;4275;42.854;23.222;2023-08-06T16:08:40;20.85;;;19.85;;
8476;SDS011;4275;42.854;23.222;2023-08-06T16:11:07;20.98;;;19.98;;
8476;SDS011;4275;42.854;23.222;2023-08-06T16:13:34;21.15;;;20.15;;
8476;SDS011;4275;42.854;23.222;2023-08-06T16:16:02;21.25;;;20.25;;
8476;SDS011;4275;42.854;23.222;2023-08-06T16:18:30;21.08;;;20.08;;
8476;SDS011;4275;42.854;23.222;2023-08-06T16:20:57;21.23;;;20.23;;
8476;SDS011;4275;42.854;23.222;2023-08-06T16:23:24;21.17;;;20.17;;
8476;SDS011;4275;42.854;23.222;2023-08-06T16:25:51;21.35;;;20.35;;